Time;durP1;ratioP1;P1;durP2;ratioP2;P2;SDS_P1;SDS_P2;PMS_P1;PMS_P2;Temp;Humidity;BMP_temperature;BMP_pressure;BME280_temperature;BME280_humidity;BME280_pressure;Samples;Min_cycle;Max_cycle;Signal;HPM_P1;HPM_P2
2022/01/21 00:00:55;;;;;;;;;6.50;6.00;;;;;5.03;82.29;103273.06;5059765;28;45911;-63
2022/01/21 00:03:21;;;;;;;;;7.25;5.00;;;;;5.01;82.54;103277.31;5061399;28;45231;-63
2022/01/21 00:05:46;;;;;;;;;7.50;5.50;;;;;4.96;82.62;103276.22;5062127;28;45161;-63
2022/01/21 00:08:11;;;;;;;;;12.75;8.00;;;;;4.90;82.82;103278.59;5061563;28;46234;-63
2022/01/21 00:10:37;;;;;;;;;6.00;6.00;;;;;4.90;82.75;103278.59;5061943;28;45325;-63
2022/01/21 00:13:04;;;;;;;;;11.75;8.75;;;;;4.87;82.78;103275.91;5061627;28;45320;-65
2022/01/21 00:15:29;;;;;;;;;11.50;7.50;;;;;4.88;83.39;103273.41;5061230;28;45316;-66
2022/01/21 00:17:55;;;;;;;;;5.25;2.50;;;;;4.85;83.11;103268.13;5058653;28;46535;-66
2022/01/21 00:31:15;;;;;;;;;12.50;8.00;;;;;4.68;83.42;103258.91;5059016;28;45566;-63
2022/01/21 00:33:41;;;;;;;;;8.50;6.00;;;;;4.65;84.03;103268.22;5061148;28;45207;-63
2022/01/21 00:36:08;;;;;;;;;12.25;9.75;;;;;4.61;84.30;103253.47;5061203;28;45452;-63
2022/01/21 00:38:33;;;;;;;;;20.50;12.25;;;;;4.60;84.45;103268.03;5061057;28;47088;-63
2022/01/21 00:41:02;;;;;;;;;18.00;13.25;;;;;4.58;84.80;103260.25;5061158;28;45355;-63
2022/01/21 00:43:32;;;;;;;;;10.75;10.75;;;;;4.57;83.87;103258.47;5061681;28;46582;-63
2022/01/21 00:45:59;;;;;;;;;15.50;15.00;;;;;4.56;85.00;103248.13;5060720;28;45268;-64
2022/01/21 00:48:26;;;;;;;;;20.25;10.75;;;;;4.53;85.17;103248.03;5058540;28;45377;-63
2022/01/21 00:50:51;;;;;;;;;7.50;5.75;;;;;4.54;84.54;103260.94;5060873;28;45623;-64
2022/01/21 00:53:17;;;;;;;;;13.50;10.00;;;;;4.57;85.54;103255.03;5060900;28;45425;-63
2022/01/21 00:55:42;;;;;;;;;10.00;8.00;;;;;4.57;85.11;103257.59;5060767;28;45231;-63
2022/01/21 00:58:08;;;;;;;;;6.25;4.50;;;;;4.54;85.28;103252.34;5057647;28;46481;-63
2022/01/21 01:00:34;;;;;;;;;10.00;6.25;;;;;4.55;85.51;103272.13;5060822;28;45405;-64
2022/01/21 01:03:01;;;;;;;;;13.50;8.25;;;;;4.54;85.65;103258.38;5059464;28;45376;-64
2022/01/21 01:05:27;;;;;;;;;8.00;4.25;;;;;4.52;85.03;103247.16;5060742;28;45496;-71
2022/01/21 01:07:54;;;;;;;;;9.50;7.50;;;;;4.52;84.75;103252.28;5060934;28;46594;-71
2022/01/21 01:10:37;;;;;;;;;5.25;5.25;;;;;4.51;85.05;103253.13;5060436;28;45906;-73
2022/01/21 01:21:21;;;;;;;;;10.50;8.50;;;;;4.40;84.65;103256.09;5060367;28;45414;-63
2022/01/21 01:27:36;;;;;;;;;9.50;8.75;;;;;4.38;85.51;103253.47;5060691;28;45265;-64
2022/01/21 01:29:20;;;;;;;;;7.50;7.50;;;;;4.34;85.93;103259.31;5060321;28;45237;-63
2022/01/21 01:31:46;;;;;;;;;5.25;4.00;;;;;4.32;85.89;103252.34;5060266;28;45293;-64
2022/01/21 01:34:12;;;;;;;;;17.00;9.00;;;;;4.29;85.82;103253.13;5060481;28;45466;-66
2022/01/21 01:36:39;;;;;;;;;11.75;8.00;;;;;4.25;86.44;103252.13;5060425;28;45501;-66
2022/01/21 01:41:38;;;;;;;;;8.75;6.25;;;;;4.18;86.03;103249.22;5060536;28;45229;-70
2022/01/21 01:49:37;;;;;;;;;10.50;6.00;;;;;4.13;87.39;103255.91;5055215;28;45883;-68
2022/01/21 01:52:09;;;;;;;;;7.00;5.25;;;;;4.12;87.67;103261.88;5059988;28;45307;-67
2022/01/21 01:54:38;;;;;;;;;10.75;5.50;;;;;4.12;87.18;103259.31;5060401;28;45310;-69
2022/01/21 01:57:04;;;;;;;;;8.75;6.25;;;;;4.11;86.89;103260.13;5059993;28;45417;-68
2022/01/21 01:59:30;;;;;;;;;13.25;10.00;;;;;4.12;87.19;103264.44;5058591;28;46076;-70
2022/01/21 02:02:02;;;;;;;;;11.00;7.00;;;;;4.09;87.27;103260.06;5057070;28;45924;-70
2022/01/21 02:04:28;;;;;;;;;6.25;5.00;;;;;4.11;87.20;103265.25;5059961;28;45348;-70
2022/01/21 02:06:54;;;;;;;;;7.75;6.50;;;;;4.11;85.93;103267.84;5059951;28;45338;-68
2022/01/21 02:09:20;;;;;;;;;11.25;7.75;;;;;4.08;86.24;103271.19;5058833;28;45946;-70
2022/01/21 02:11:46;;;;;;;;;1.50;0.00;;;;;4.06;86.90;103277.09;5059672;28;45489;-69
2022/01/21 02:14:16;;;;;;;;;6.25;6.25;;;;;4.04;87.16;103273.56;5060055;28;45223;-70
2022/01/21 02:17:10;;;;;;;;;11.25;5.50;;;;;4.01;87.26;103265.75;5059532;28;45370;-69
2022/01/21 02:22:23;;;;;;;;;5.25;4.25;;;;;3.98;87.09;103266.47;5059711;28;45550;-70
2022/01/21 02:24:55;;;;;;;;;14.50;7.50;;;;;3.93;88.48;103265.41;5055565;28;45236;-69
2022/01/21 02:27:21;;;;;;;;;8.50;5.00;;;;;3.94;87.97;103267.16;5085504;27;45346;-69
2022/01/21 02:29:50;;;;;;;;;7.00;6.25;;;;;3.94;87.96;103267.16;5059397;28;46254;-68
2022/01/21 02:32:18;;;;;;;;;9.00;5.25;;;;;3.94;88.30;103264.59;5059457;28;45279;-68
2022/01/21 02:34:45;;;;;;;;;4.00;4.00;;;;;3.92;87.44;103266.22;5059949;28;45484;-67
2022/01/21 02:37:12;;;;;;;;;7.00;4.00;;;;;3.90;87.30;103260.16;5059542;28;45282;-68
2022/01/21 02:39:38;;;;;;;;;12.00;4.75;;;;;3.87;87.84;103260.91;5059535;28;45312;-68
2022/01/21 02:42:04;;;;;;;;;10.75;8.00;;;;;3.87;88.32;103260.91;5059402;28;45962;-68
2022/01/21 02:44:29;;;;;;;;;10.50;7.75;;;;;3.84;87.76;103260.78;5059650;28;45413;-67
2022/01/21 02:46:58;;;;;;;;;7.50;7.50;;;;;3.87;87.13;103263.47;5059207;28;45497;-64
2022/01/21 02:49:24;;;;;;;;;8.50;6.25;;;;;3.83;87.99;103265.88;5058103;28;46416;-64
2022/01/21 02:51:52;;;;;;;;;9.00;7.50;;;;;3.84;88.07;103270.19;5059191;28;45267;-64
2022/01/21 02:54:17;;;;;;;;;8.00;6.25;;;;;3.80;88.12;103256.31;5059295;28;45324;-63
2022/01/21 02:56:43;;;;;;;;;8.00;7.00;;;;;3.79;88.45;103263.97;5059168;28;45219;-63
2022/01/21 02:59:09;;;;;;;;;11.75;8.00;;;;;3.78;88.97;103269.91;5059099;28;45361;-63
2022/01/21 03:01:37;;;;;;;;;7.00;5.00;;;;;3.75;87.79;103262.97;5059047;28;45693;-63
2022/01/21 03:04:05;;;;;;;;;11.25;5.25;;;;;3.75;88.00;103267.22;5056799;28;45817;-63
2022/01/21 03:06:32;;;;;;;;;8.25;7.25;;;;;3.71;88.10;103261.09;5058919;28;45453;-64
2022/01/21 03:08:58;;;;;;;;;9.25;8.00;;;;;3.71;89.00;103268.81;5091688;27;47320;-64
2022/01/21 03:11:26;;;;;;;;;10.50;5.75;;;;;3.72;89.13;103270.56;5059131;28;45263;-63
2022/01/21 03:13:51;;;;;;;;;12.50;9.00;;;;;3.68;88.86;103255.81;5059143;28;45279;-63
2022/01/21 03:16:18;;;;;;;;;12.75;6.75;;;;;3.72;88.49;103264.53;5058780;28;45504;-63
2022/01/21 03:18:43;;;;;;;;;9.75;7.75;;;;;3.71;88.05;103265.34;5059155;28;45356;-64
2022/01/21 03:21:15;;;;;;;;;7.00;5.50;;;;;3.72;88.68;103267.09;5060074;28;45339;-64
2022/01/21 03:23:41;;;;;;;;;13.50;8.00;;;;;3.66;88.95;103267.75;5050736;28;45366;-64
2022/01/21 03:26:06;;;;;;;;;11.00;9.25;;;;;3.66;89.34;103267.75;5047675;28;45355;-64
2022/01/21 03:28:32;;;;;;;;;8.00;5.00;;;;;3.61;88.89;103264.13;5060149;28;45716;-63
2022/01/21 03:30:57;;;;;;;;;7.25;4.75;;;;;3.63;88.79;103272.75;5060342;28;45368;-63
2022/01/21 03:33:24;;;;;;;;;12.25;8.25;;;;;3.61;89.67;103279.53;5062096;28;45429;-64
2022/01/21 03:35:51;;;;;;;;;7.00;5.50;;;;;3.60;89.04;103285.47;5061854;28;45520;-65
2022/01/21 03:38:18;;;;;;;;;8.00;7.25;;;;;3.61;89.15;103276.97;5061990;28;46051;-65
2022/01/21 03:40:43;;;;;;;;;9.75;7.00;;;;;3.63;89.74;103275.34;5061970;28;45813;-65
2022/01/21 03:43:11;;;;;;;;;11.00;9.75;;;;;3.65;89.31;103277.16;5062404;28;45268;-64
2022/01/21 03:45:37;;;;;;;;;12.50;7.75;;;;;3.69;88.90;103290.13;5061947;28;45261;-63
2022/01/21 03:48:02;;;;;;;;;5.50;5.50;;;;;3.75;89.40;103288.69;5060634;28;45354;-65
2022/01/21 03:50:32;;;;;;;;;11.75;8.25;;;;;3.79;89.19;103287.09;5061781;28;45454;-64
2022/01/21 03:53:00;;;;;;;;;11.75;7.25;;;;;3.82;88.85;103282.13;5061828;28;45343;-64
2022/01/21 03:55:26;;;;;;;;;10.00;6.00;;;;;3.81;89.03;103278.66;5061581;28;45524;-64
2022/01/21 03:57:52;;;;;;;;;1.75;1.75;;;;;3.83;89.20;103281.31;5060778;28;45419;-64
2022/01/21 04:00:22;;;;;;;;;9.00;7.75;;;;;3.86;88.86;103282.28;5061835;28;46237;-64
2022/01/21 04:02:48;;;;;;;;;9.00;7.25;;;;;3.86;88.88;103281.41;5062030;28;45271;-64
2022/01/21 04:05:13;;;;;;;;;7.75;5.00;;;;;3.86;89.07;103277.16;5058923;28;45328;-64
2022/01/21 04:07:39;;;;;;;;;10.00;7.25;;;;;3.84;89.23;103272.78;5059427;28;47309;-64
2022/01/21 04:10:05;;;;;;;;;8.00;6.75;;;;;3.84;89.07;103281.38;5061436;28;45275;-64
2022/01/21 04:12:31;;;;;;;;;7.75;6.00;;;;;3.81;89.39;103280.38;5059894;28;46647;-64
2022/01/21 04:14:59;;;;;;;;;7.50;5.00;;;;;3.81;89.28;103288.97;5058878;28;45460;-63
2022/01/21 04:17:28;;;;;;;;;8.25;5.25;;;;;3.80;88.94;103291.44;5059916;28;46342;-63
2022/01/21 04:19:54;;;;;;;;;10.00;7.75;;;;;3.81;89.24;103294.09;5060035;28;45457;-63
2022/01/21 04:22:20;;;;;;;;;7.75;7.00;;;;;3.79;88.67;103295.69;5061700;28;45165;-64
2022/01/21 04:24:47;;;;;;;;;7.50;5.00;;;;;3.80;89.29;103300.03;5061270;28;45551;-64
2022/01/21 04:27:13;;;;;;;;;10.00;6.00;;;;;3.79;89.22;103294.81;5061650;28;45349;-64
2022/01/21 04:29:38;;;;;;;;;7.25;6.00;;;;;3.76;89.49;103295.56;5059048;28;45727;-64
2022/01/21 04:32:05;;;;;;;;;10.75;6.75;;;;;3.72;89.51;103298.84;5057163;28;45574;-64
2022/01/21 04:34:31;;;;;;;;;8.50;5.00;;;;;3.69;89.89;103303.88;5057478;28;45350;-64
2022/01/21 04:36:56;;;;;;;;;8.00;4.75;;;;;3.71;89.27;103302.22;5057685;28;46401;-64
2022/01/21 04:39:30;;;;;;;;;10.00;5.75;;;;;3.74;89.94;103298.91;5057518;28;45666;-64
2022/01/21 04:47:23;;;;;;;;;8.00;5.25;;;;;3.79;90.17;103297.41;5060562;28;46257;-66
2022/01/21 04:49:49;;;;;;;;;12.50;7.00;;;;;3.76;90.59;103289.56;5061040;28;45339;-68
2022/01/21 04:52:15;;;;;;;;;11.75;7.00;;;;;3.78;89.28;103291.38;5061048;28;45318;-67
2022/01/21 04:54:41;;;;;;;;;12.50;5.25;;;;;3.80;89.10;103287.16;5061056;28;45306;-67
2022/01/21 04:57:06;;;;;;;;;12.00;5.50;;;;;3.85;89.20;103284.81;5060666;28;45696;-67
2022/01/21 04:59:32;;;;;;;;;9.50;7.50;;;;;3.90;89.60;103299.59;5060956;28;45224;-70
2022/01/21 05:01:58;;;;;;;;;7.00;7.00;;;;;3.92;88.76;103303.13;5060126;28;45450;-69
2022/01/21 05:04:24;;;;;;;;;9.00;8.00;;;;;3.93;89.92;103304.88;5060417;28;45473;-69
2022/01/21 05:06:52;;;;;;;;;9.75;7.00;;;;;3.95;89.48;103297.22;5060102;28;46283;-68
2022/01/21 05:09:19;;;;;;;;;8.50;7.00;;;;;4.02;89.11;103309.53;5060729;28;45990;-68
2022/01/21 05:11:46;;;;;;;;;4.75;4.75;;;;;4.02;88.41;103311.22;5060045;28;45264;-69
2022/01/21 05:14:24;;;;;;;;;8.00;8.00;;;;;4.03;89.41;103294.97;5058763;28;45457;-69
2022/01/21 05:16:51;;;;;;;;;10.00;4.50;;;;;4.04;89.55;103307.91;5059664;28;46541;-69
2022/01/21 05:19:19;;;;;;;;;8.00;5.00;;;;;4.04;88.67;103297.59;5059138;28;45945;-69
2022/01/21 05:21:47;;;;;;;;;13.75;7.25;;;;;3.98;88.54;103298.22;5060422;28;45340;-69
2022/01/21 05:24:14;;;;;;;;;10.00;5.00;;;;;4.01;89.38;103297.50;5060588;28;45197;-70
2022/01/21 05:26:42;;;;;;;;;5.50;3.75;;;;;4.04;89.95;103301.88;5058826;28;47112;-69
2022/01/21 05:29:09;;;;;;;;;9.75;4.75;;;;;4.11;88.61;103306.44;5060167;28;45342;-68
2022/01/21 05:31:35;;;;;;;;;9.00;5.00;;;;;4.14;88.31;103307.44;5060132;28;45371;-69
2022/01/21 05:34:02;;;;;;;;;8.00;5.00;;;;;4.13;88.92;103309.94;5060371;28;45497;-69
2022/01/21 05:36:27;;;;;;;;;8.50;4.25;;;;;4.16;88.57;103315.22;5060301;28;45230;-69
2022/01/21 05:38:54;;;;;;;;;9.00;5.00;;;;;4.17;88.87;103310.13;5059810;28;45346;-69
2022/01/21 05:41:22;;;;;;;;;9.00;6.25;;;;;4.19;88.41;103316.22;5060634;28;45158;-69
2022/01/21 05:43:48;;;;;;;;;8.00;6.00;;;;;4.16;87.83;103313.53;5059849;28;45447;-68
2022/01/21 05:46:26;;;;;;;;;7.00;2.50;;;;;4.14;87.60;103324.56;5060211;28;46467;-66
2022/01/21 05:48:52;;;;;;;;;7.00;5.50;;;;;4.11;87.84;103324.44;5058728;28;45892;-68
2022/01/21 05:51:18;;;;;;;;;11.00;7.00;;;;;4.05;87.88;103319.94;5060357;28;45572;-63
2022/01/21 05:53:43;;;;;;;;;8.00;6.00;;;;;4.03;89.22;103312.97;5059527;28;45398;-63
2022/01/21 05:56:09;;;;;;;;;6.75;6.75;;;;;4.02;89.04;103313.81;5059877;28;46088;-63
2022/01/21 05:58:34;;;;;;;;;1.50;1.50;;;;;4.04;88.42;103312.16;5059809;28;45268;-64
2022/01/21 06:01:00;;;;;;;;;7.50;7.50;;;;;4.00;88.08;103321.44;5060268;28;45391;-65
2022/01/21 06:03:26;;;;;;;;;10.50;8.75;;;;;3.97;89.19;103326.44;5059581;28;45413;-64
2022/01/21 06:05:51;;;;;;;;;6.00;4.00;;;;;3.94;88.21;103324.63;5059781;28;46122;-68
2022/01/21 06:08:16;;;;;;;;;8.00;6.75;;;;;3.88;89.81;103328.66;5059162;28;45258;-64
2022/01/21 06:10:42;;;;;;;;;6.25;5.00;;;;;3.87;88.72;103325.22;5060076;28;45177;-63
2022/01/21 06:13:07;;;;;;;;;4.50;4.50;;;;;3.86;89.52;103328.59;5059474;28;45278;-64
2022/01/21 06:15:34;;;;;;;;;8.75;6.75;;;;;3.87;88.88;103332.94;5059490;28;46368;-63
2022/01/21 06:17:59;;;;;;;;;10.25;7.25;;;;;3.86;89.45;103333.75;5055084;28;46035;-64
2022/01/21 06:20:25;;;;;;;;;6.75;4.25;;;;;3.88;89.22;103336.38;5059692;28;45263;-64
2022/01/21 06:22:50;;;;;;;;;5.50;4.00;;;;;3.91;89.49;103339.06;5058941;28;45461;-68
2022/01/21 06:25:16;;;;;;;;;8.00;5.00;;;;;3.93;88.83;103340.88;5051861;28;46304;-69
2022/01/21 06:27:41;;;;;;;;;7.25;4.00;;;;;3.99;89.23;103340.25;5055169;28;45318;-67
2022/01/21 06:30:08;;;;;;;;;8.00;4.50;;;;;4.03;88.67;103341.28;5059418;28;45339;-68
2022/01/21 06:32:34;;;;;;;;;7.75;3.00;;;;;4.00;88.67;103342.00;5058831;28;45405;-67
2022/01/21 06:34:59;;;;;;;;;11.75;7.00;;;;;4.05;88.33;103331.94;5059199;28;46124;-67
2022/01/21 06:37:24;;;;;;;;;10.25;7.50;;;;;4.07;88.39;103335.44;5059267;28;45352;-64
2022/01/21 06:39:50;;;;;;;;;6.25;4.00;;;;;4.09;89.13;103336.38;5059058;28;45289;-64
2022/01/21 06:42:16;;;;;;;;;9.50;5.75;;;;;4.05;88.32;103339.66;5054745;28;45537;-64
2022/01/21 06:44:41;;;;;;;;;12.00;5.50;;;;;4.10;88.60;103348.44;5054619;28;45505;-63
2022/01/21 06:47:07;;;;;;;;;11.00;7.50;;;;;4.12;88.61;103351.94;5046738;28;45150;-76
2022/01/21 06:49:32;;;;;;;;;4.00;4.00;;;;;4.14;88.78;103356.31;5058962;28;45366;-73
2022/01/21 06:51:58;;;;;;;;;7.25;6.25;;;;;4.13;87.79;103349.44;5058685;28;45402;-71
2022/01/21 06:54:23;;;;;;;;;7.75;5.25;;;;;4.11;87.87;103351.06;5056731;28;47286;-66
2022/01/21 06:56:49;;;;;;;;;8.00;4.75;;;;;4.15;88.15;103352.06;5061118;28;45461;-67
2022/01/21 06:59:14;;;;;;;;;10.25;6.50;;;;;4.16;88.50;103366.69;5062727;28;45568;-66
2022/01/21 07:01:39;;;;;;;;;14.00;5.75;;;;;4.15;88.24;103355.50;5061022;28;45428;-68
2022/01/21 07:04:05;;;;;;;;;7.00;6.50;;;;;4.19;88.74;103366.81;5061972;28;45474;-71
2022/01/21 07:06:30;;;;;;;;;8.00;5.00;;;;;4.17;88.70;103360.72;5062448;28;45326;-69
2022/01/21 07:08:56;;;;;;;;;5.50;5.50;;;;;4.24;88.06;103375.63;5062718;28;45448;-69
2022/01/21 07:11:21;;;;;;;;;8.50;5.00;;;;;4.23;88.39;103367.00;5062307;28;45481;-68
2022/01/21 07:13:46;;;;;;;;;8.25;5.00;;;;;4.20;88.33;103366.00;5062124;28;45296;-66
2022/01/21 07:16:12;;;;;;;;;8.00;5.25;;;;;4.18;88.90;103368.50;5061853;28;45340;-67
2022/01/21 07:18:38;;;;;;;;;7.75;3.50;;;;;4.13;88.48;103371.72;5060765;28;45324;-66
2022/01/21 07:21:03;;;;;;;;;9.00;5.00;;;;;4.12;89.17;103378.56;5059260;28;45441;-68
2022/01/21 07:23:29;;;;;;;;;5.75;4.50;;;;;4.14;88.72;103386.34;5061324;28;45326;-69
2022/01/21 07:25:55;;;;;;;;;7.75;4.00;;;;;4.16;89.39;103383.00;5050207;28;45353;-68
2022/01/21 07:28:20;;;;;;;;;13.00;8.00;;;;;4.18;88.75;103383.06;5060864;28;45253;-70
2022/01/21 07:30:45;;;;;;;;;4.50;4.50;;;;;4.21;88.39;103389.25;5061708;28;46013;-71
2022/01/21 07:33:13;;;;;;;;;4.50;4.00;;;;;4.20;88.10;103389.16;5061507;28;45267;-74
2022/01/21 07:35:38;;;;;;;;;9.00;6.25;;;;;4.23;88.56;103390.19;5061762;28;45955;-74
2022/01/21 07:38:04;;;;;;;;;12.00;12.00;;;;;4.23;88.93;103389.31;5060675;28;45422;-74
2022/01/21 07:40:29;;;;;;;;;10.50;5.25;;;;;4.31;88.50;103393.06;5058870;28;45517;-78
2022/01/21 07:42:55;;;;;;;;;6.50;4.50;;;;;4.29;88.33;103394.69;5061558;28;45402;-77
2022/01/21 07:45:20;;;;;;;;;7.75;7.00;;;;;4.28;88.38;103398.09;5060300;28;45423;-78
2022/01/21 07:47:46;;;;;;;;;3.75;2.50;;;;;4.24;88.16;103398.78;5060717;28;45445;-71
2022/01/21 07:50:11;;;;;;;;;9.00;5.25;;;;;4.25;88.20;103409.13;5061914;28;45462;-74
2022/01/21 07:52:37;;;;;;;;;8.50;8.50;;;;;4.27;88.78;103399.78;5061465;28;45368;-71
2022/01/21 07:55:03;;;;;;;;;8.50;8.25;;;;;4.31;88.27;103405.94;5061338;28;45402;-69
2022/01/21 07:57:28;;;;;;;;;6.25;6.25;;;;;4.38;88.40;103415.66;5061074;28;45217;-69
2022/01/21 07:59:53;;;;;;;;;6.00;6.00;;;;;4.42;88.14;103411.53;5061703;28;45253;-71
2022/01/21 08:02:19;;;;;;;;;11.50;9.75;;;;;4.49;87.71;103424.69;5061268;28;45264;-67
2022/01/21 08:04:44;;;;;;;;;14.75;10.25;;;;;4.48;87.46;103411.78;5061528;28;45369;-67
2022/01/21 08:07:11;;;;;;;;;10.00;8.00;;;;;4.52;87.17;103426.50;5059794;28;45462;-66
2022/01/21 08:09:37;;;;;;;;;13.50;8.00;;;;;4.50;88.06;103420.44;5061288;28;45318;-65
2022/01/21 08:12:02;;;;;;;;;8.00;5.00;;;;;4.51;87.94;103415.34;5061198;28;45979;-66
2022/01/21 08:14:28;;;;;;;;;10.75;8.00;;;;;4.54;87.38;103424.88;5061304;28;45425;-67
2022/01/21 08:16:54;;;;;;;;;14.25;10.00;;;;;4.55;87.58;103432.66;5061258;28;45510;-65
2022/01/21 08:19:20;;;;;;;;;10.50;8.00;;;;;4.54;87.11;103423.19;5060014;28;45329;-66
2022/01/21 08:21:45;;;;;;;;;6.00;5.00;;;;;4.55;87.77;103422.38;5059077;28;46340;-68
2022/01/21 08:24:11;;;;;;;;;12.00;8.50;;;;;4.57;87.35;103425.00;5059810;28;45331;-66
2022/01/21 08:26:37;;;;;;;;;14.25;11.25;;;;;4.61;87.43;103426.03;5048870;28;45544;-65
2022/01/21 08:29:04;;;;;;;;;10.75;8.25;;;;;4.65;87.19;103422.75;5061275;28;45510;-64
2022/01/21 08:31:29;;;;;;;;;12.00;9.00;;;;;4.69;87.53;103430.66;5059559;28;46121;-67
2022/01/21 08:33:55;;;;;;;;;8.50;8.25;;;;;4.70;87.50;103426.38;5061118;28;45271;-69
2022/01/21 08:36:21;;;;;;;;;6.50;4.00;;;;;4.75;87.42;103435.16;5061056;28;45300;-71
2022/01/21 08:38:47;;;;;;;;;14.75;11.25;;;;;4.79;87.40;103437.03;5060413;28;45188;-64
2022/01/21 08:41:12;;;;;;;;;13.00;9.75;;;;;4.86;87.03;103437.34;5060734;28;45395;-65
2022/01/21 08:43:38;;;;;;;;;19.50;16.25;;;;;4.90;87.12;103435.78;5060511;28;45400;-66
2022/01/21 08:46:04;;;;;;;;;16.75;13.25;;;;;4.94;87.30;103432.47;5061035;28;45609;-68
2022/01/21 08:48:29;;;;;;;;;32.25;22.75;;;;;5.00;87.47;103437.00;5059507;28;45378;-68
2022/01/21 08:51:00;;;;;;;;;38.25;28.00;;;;;5.02;86.82;103438.84;5060273;28;46111;-69
2022/01/21 08:53:38;;;;;;;;;19.50;14.00;;;;;5.07;87.02;103442.47;5060384;28;45816;-69
2022/01/21 08:56:13;;;;;;;;;16.00;11.25;;;;;5.09;86.09;103427.94;5047332;28;45304;-70
2022/01/21 08:58:40;;;;;;;;;14.25;8.75;;;;;5.13;86.98;103432.38;5059180;28;45602;-69
2022/01/21 09:01:06;;;;;;;;;14.25;12.75;;;;;5.18;86.31;103424.81;5060790;28;45608;-72
2022/01/21 09:03:33;;;;;;;;;13.50;11.75;;;;;5.26;86.24;103435.44;5058812;28;45315;-72
2022/01/21 09:05:59;;;;;;;;;17.75;11.25;;;;;5.24;85.47;103426.75;5060859;28;45274;-72
2022/01/21 09:08:29;;;;;;;;;15.75;12.50;;;;;5.24;86.56;103425.06;5060234;28;45494;-70
2022/01/21 09:10:54;;;;;;;;;10.25;10.25;;;;;5.32;86.19;103436.53;5060713;28;46330;-76
2022/01/21 09:13:22;;;;;;;;;7.50;5.50;;;;;5.38;85.89;103451.34;5060018;28;45323;-70
2022/01/21 09:15:48;;;;;;;;;18.25;17.25;;;;;5.40;86.00;103449.69;5060649;28;45185;-70
2022/01/21 09:18:18;;;;;;;;;17.50;10.00;;;;;5.44;85.46;103443.84;5059555;28;45241;-70
2022/01/21 09:20:44;;;;;;;;;15.00;13.50;;;;;5.49;86.05;103439.72;5060466;28;45975;-68
2022/01/21 09:23:10;;;;;;;;;15.75;10.25;;;;;5.56;84.33;103441.72;5059794;28;45429;-69
2022/01/21 09:25:35;;;;;;;;;11.25;11.25;;;;;5.58;85.08;103454.66;5058005;28;45342;-71
2022/01/21 09:28:01;;;;;;;;;18.50;14.75;;;;;5.60;85.87;103453.00;5059800;28;45639;-69
2022/01/21 09:30:27;;;;;;;;;25.25;16.25;;;;;5.57;86.14;103447.75;5059986;28;46037;-73
2022/01/21 09:32:52;;;;;;;;;26.00;20.00;;;;;5.62;85.02;103456.56;5059588;28;45343;-73
2022/01/21 09:35:18;;;;;;;;;16.75;14.75;;;;;5.74;85.40;103472.44;5060460;28;45240;-70
2022/01/21 09:37:43;;;;;;;;;14.50;14.00;;;;;5.72;84.36;103467.25;5059902;28;45391;-70
2022/01/21 09:40:10;;;;;;;;;16.25;14.25;;;;;5.69;84.11;103476.56;5060434;28;45398;-70
2022/01/21 09:42:37;;;;;;;;;19.75;13.00;;;;;5.69;84.50;103485.19;5059788;28;45224;-71
2022/01/21 09:45:09;;;;;;;;;23.50;17.50;;;;;5.74;85.27;103487.94;5059628;28;45466;-72
2022/01/21 09:47:45;;;;;;;;;14.25;9.75;;;;;5.70;83.81;103473.19;5056894;28;45381;-69
2022/01/21 09:50:12;;;;;;;;;14.00;13.25;;;;;5.73;84.51;103492.22;5059468;28;47507;-70
2022/01/21 09:52:37;;;;;;;;;16.50;14.25;;;;;5.71;84.55;103499.03;5058699;28;45908;-65
2022/01/21 09:55:04;;;;;;;;;18.25;15.75;;;;;5.69;85.32;103489.47;5059660;28;45355;-67
2022/01/21 09:57:30;;;;;;;;;20.25;15.75;;;;;5.70;85.49;103480.91;5059577;28;45572;-68
2022/01/21 09:59:58;;;;;;;;;22.00;12.50;;;;;5.74;85.38;103488.81;5059711;28;47462;-68
2022/01/21 10:02:28;;;;;;;;;16.50;11.75;;;;;5.85;85.61;103496.97;5059698;28;45800;-67
2022/01/21 10:04:57;;;;;;;;;14.75;13.50;;;;;5.85;85.34;103502.13;5059837;28;45311;-71
2022/01/21 10:07:23;;;;;;;;;16.75;11.00;;;;;5.90;85.00;103507.47;5060049;28;45284;-65
2022/01/21 10:09:50;;;;;;;;;22.25;13.00;;;;;5.91;85.27;103498.91;5059201;28;46358;-71
2022/01/21 10:12:16;;;;;;;;;13.50;9.00;;;;;6.00;84.70;103502.69;5059867;28;45744;-72
2022/01/21 10:14:43;;;;;;;;;18.00;13.50;;;;;6.04;84.54;103509.72;5059390;28;45218;-69
2022/01/21 10:17:08;;;;;;;;;12.00;10.25;;;;;6.02;84.43;103507.94;5059688;28;45960;-69
2022/01/21 10:19:35;;;;;;;;;12.50;11.75;;;;;5.99;84.09;103510.38;5059250;28;45328;-78
2022/01/21 10:22:16;;;;;;;;;20.50;11.25;;;;;6.04;83.70;103498.53;5059095;28;45864;-70
2022/01/21 10:24:59;;;;;;;;;15.00;11.50;;;;;6.08;83.66;103495.22;5059348;28;45196;-71
2022/01/21 10:27:30;;;;;;;;;12.00;12.00;;;;;6.07;83.61;103501.22;5056636;28;45583;-73
2022/01/21 10:29:56;;;;;;;;;17.00;9.25;;;;;6.11;83.26;103508.25;5058550;28;46051;-73
2022/01/21 10:32:40;;;;;;;;;20.50;11.00;;;;;6.17;83.86;103513.59;5057456;28;45883;-73
2022/01/21 10:35:21;;;;;;;;;13.50;11.25;;;;;6.23;84.36;103511.25;5048561;28;46052;-69
2022/01/21 10:37:48;;;;;;;;;24.00;18.00;;;;;6.26;83.77;103498.44;5075583;28;45666;-70
2022/01/21 10:40:15;;;;;;;;;20.75;13.75;;;;;6.37;83.82;103494.50;5066282;28;45315;-73
2022/01/21 10:42:40;;;;;;;;;16.25;13.25;;;;;6.45;83.42;103499.09;5058251;28;45360;-76
2022/01/21 10:45:07;;;;;;;;;13.25;8.75;;;;;6.46;83.19;103488.81;5059284;28;45305;-77
2022/01/21 10:47:36;;;;;;;;;16.00;10.00;;;;;6.53;83.18;103493.34;5056632;28;45228;-78
2022/01/21 10:50:08;;;;;;;;;10.75;9.00;;;;;6.53;81.88;103500.22;5058836;28;45600;-78
2022/01/21 10:52:37;;;;;;;;;12.75;9.50;;;;;6.50;82.53;103505.28;5059169;28;45158;-78
2022/01/21 10:55:05;;;;;;;;;17.00;11.00;;;;;6.52;82.67;103498.44;5059194;28;45571;-78
2022/01/21 10:57:32;;;;;;;;;14.50;9.25;;;;;6.55;82.12;103485.63;5057474;28;45947;-75
2022/01/21 11:00:09;;;;;;;;;18.00;13.25;;;;;6.61;82.36;103488.44;5058514;28;46012;-76
2022/01/21 11:02:53;;;;;;;;;17.25;12.50;;;;;6.68;81.90;103490.38;5054716;28;45427;-75
2022/01/21 11:05:23;;;;;;;;;14.50;10.50;;;;;6.79;81.51;103486.41;5054129;28;45283;-75
2022/01/21 11:07:55;;;;;;;;;13.50;11.00;;;;;6.82;81.61;103488.25;5057176;28;45621;-75
2022/01/21 11:10:36;;;;;;;;;20.25;12.00;;;;;6.82;80.86;103496.88;5051386;28;45657;-75
2022/01/21 11:13:12;;;;;;;;;13.00;10.50;;;;;6.82;80.74;103486.53;5055408;28;45346;-75
2022/01/21 11:15:42;;;;;;;;;7.25;6.00;;;;;6.90;79.54;103490.25;5058745;28;45441;-75
2022/01/21 11:18:13;;;;;;;;;11.50;10.00;;;;;6.91;80.56;103492.00;5058260;28;45377;-75
2022/01/21 11:20:40;;;;;;;;;14.25;11.75;;;;;6.95;80.06;103491.25;5058946;28;45503;-75
2022/01/21 11:23:08;;;;;;;;;15.00;11.00;;;;;6.93;80.38;103486.88;5056800;28;45271;-77
2022/01/21 11:25:44;;;;;;;;;6.00;6.00;;;;;6.93;79.92;103498.09;5048935;28;45374;-77
2022/01/21 11:28:15;;;;;;;;;12.50;6.00;;;;;6.90;79.32;103498.00;5056894;28;45414;-78
2022/01/21 11:30:41;;;;;;;;;16.75;10.00;;;;;6.90;81.04;103491.94;5054392;28;47300;-77
2022/01/21 11:33:07;;;;;;;;;14.50;10.00;;;;;6.90;79.76;103487.66;5058041;28;45314;-77
2022/01/21 11:35:34;;;;;;;;;14.00;8.00;;;;;6.93;79.67;103485.16;5058233;28;45642;-77
2022/01/21 11:38:04;;;;;;;;;15.50;10.75;;;;;6.90;79.07;103477.31;5058666;28;45338;-77
2022/01/21 11:40:29;;;;;;;;;15.25;10.75;;;;;6.89;80.11;103474.69;5058559;28;45296;-77
2022/01/21 11:42:57;;;;;;;;;20.00;13.25;;;;;6.98;79.46;103481.00;5060023;28;45353;-76
2022/01/21 11:50:42;;;;;;;;;11.25;10.25;;;;;7.09;79.21;103475.31;5061890;28;45248;-77
2022/01/21 11:53:08;;;;;;;;;9.00;6.25;;;;;7.07;77.87;103458.88;5060498;28;45343;-77
2022/01/21 11:55:37;;;;;;;;;12.00;7.75;;;;;7.07;78.05;103474.38;5061765;28;45477;-77
2022/01/21 11:58:20;;;;;;;;;6.25;6.25;;;;;7.10;78.34;103465.00;5062032;28;45239;-77
2022/01/21 12:00:48;;;;;;;;;11.25;8.00;;;;;7.15;78.60;103478.06;5060706;28;45338;-77
2022/01/21 12:03:15;;;;;;;;;6.00;5.25;;;;;7.11;77.50;103478.81;5061579;28;45264;-77
2022/01/21 12:05:40;;;;;;;;;9.75;8.00;;;;;7.09;77.93;103467.56;5061701;28;45304;-77
2022/01/21 12:08:06;;;;;;;;;13.00;7.00;;;;;7.11;77.97;103468.47;5061524;28;45478;-78
2022/01/21 12:10:36;;;;;;;;;10.75;10.00;;;;;7.16;78.55;103472.06;5061453;28;46051;-77